createdAt,value
2019-05-22T00:01:15.123Z,89.90
2019-05-22T00:03:47.112Z,89.50
2019-05-22T00:06:18.191Z,89.50
2019-05-22T00:09:04.436Z,89.80
2019-05-22T00:11:34.619Z,89.70
2019-05-22T00:14:05.706Z,89.40
2019-05-22T00:16:37.478Z,89.70
2019-05-22T00:19:07.362Z,89.70
2019-05-22T00:21:38.458Z,89.40
2019-05-22T00:24:08.380Z,89.60
2019-05-22T00:26:40.459Z,89.70
2019-05-22T00:29:14.101Z,89.70
2019-05-22T00:31:45.530Z,89.50
2019-05-22T00:34:17.335Z,89.80
2019-05-22T00:36:47.351Z,89.50
2019-05-22T00:39:22.144Z,89.30
2019-05-22T00:41:53.342Z,88.90
2019-05-22T00:44:23.220Z,88.70
2019-05-22T00:46:54.319Z,88.50
2019-05-22T00:49:24.805Z,88.40
2019-05-22T00:52:22.778Z,88.70
2019-05-22T00:55:07.303Z,88.80
2019-05-22T00:57:50.573Z,88.90
2019-05-22T01:00:22.005Z,88.90
2019-05-22T01:02:52.319Z,88.90
2019-05-22T01:05:22.503Z,89.10
2019-05-22T01:07:52.378Z,88.90
2019-05-22T01:10:23.088Z,88.70
2019-05-22T01:12:56.173Z,88.70
2019-05-22T01:15:26.826Z,88.70
2019-05-22T01:18:02.155Z,88.70
2019-05-22T01:20:33.251Z,88.80
2019-05-22T01:23:02.853Z,88.70
2019-05-22T01:25:34.597Z,88.40
2019-05-22T01:28:06.854Z,88.30
2019-05-22T01:30:44.443Z,88.50
2019-05-22T01:33:32.015Z,88.70
2019-05-22T01:36:03.200Z,88.90
2019-05-22T01:38:34.644Z,89.00
2019-05-22T01:41:20.518Z,89.30
2019-05-22T01:43:54.253Z,89.30
2019-05-22T01:46:25.518Z,89.20
2019-05-22T01:48:59.742Z,89.30
2019-05-22T01:51:29.226Z,89.40
2019-05-22T01:54:00.054Z,89.40
2019-05-22T01:56:30.592Z,88.90
2019-05-22T01:59:00.302Z,88.70
2019-05-22T02:01:30.633Z,88.50
2019-05-22T02:04:02.056Z,88.50
2019-05-22T02:06:32.482Z,88.30
2019-05-22T02:09:21.618Z,88.10
2019-05-22T02:11:57.749Z,88.10
2019-05-22T02:14:27.863Z,88.20
2019-05-22T02:16:58.574Z,88.20
2019-05-22T02:19:29.458Z,87.90
2019-05-22T02:21:59.717Z,88.00
2019-05-22T02:24:30.955Z,88.00
2019-05-22T02:27:02.091Z,88.10
2019-05-22T02:29:32.832Z,87.70
2019-05-22T02:32:06.525Z,88.50
2019-05-22T02:34:37.143Z,87.60
2019-05-22T02:37:07.448Z,87.50
2019-05-22T02:39:38.774Z,87.60
2019-05-22T02:42:11.906Z,87.40
2019-05-22T02:44:41.681Z,87.60
2019-05-22T02:47:19.888Z,87.60
2019-05-22T02:49:48.807Z,87.90
2019-05-22T02:52:19.869Z,87.80
2019-05-22T02:54:49.899Z,88.00
2019-05-22T02:57:20.745Z,88.00
2019-05-22T02:59:50.701Z,88.10
2019-05-22T03:02:32.671Z,88.30
2019-05-22T03:05:09.499Z,88.40
2019-05-22T03:07:41.595Z,88.40
2019-05-22T03:10:13.145Z,88.30
2019-05-22T03:12:45.515Z,88.50
2019-05-22T03:15:18.088Z,89.00
2019-05-22T03:17:52.102Z,88.30
2019-05-22T03:20:23.421Z,88.30
2019-05-22T03:23:14.631Z,88.50
2019-05-22T03:25:44.655Z,88.40
2019-05-22T03:28:15.565Z,88.60
2019-05-22T03:30:46.731Z,88.60
2019-05-22T03:33:17.672Z,88.60
2019-05-22T03:35:51.239Z,88.20
2019-05-22T03:38:21.282Z,88.00
2019-05-22T03:40:53.293Z,87.70
2019-05-22T03:43:35.258Z,87.70
2019-05-22T03:46:23.518Z,87.60
2019-05-22T03:48:54.316Z,87.20
2019-05-22T03:51:23.923Z,87.80
2019-05-22T03:53:54.177Z,87.30
2019-05-22T03:56:24.109Z,87.00
2019-05-22T03:58:53.927Z,87.00
2019-05-22T04:01:25.492Z,86.80
2019-05-22T04:03:55.590Z,86.50
2019-05-22T04:06:25.613Z,86.80
2019-05-22T04:08:56.513Z,86.80
2019-05-22T04:11:35.204Z,86.50
2019-05-22T04:14:05.425Z,86.20
2019-05-22T04:16:35.620Z,86.30
2019-05-22T04:19:05.138Z,86.20
2019-05-22T04:21:38.244Z,86.10
2019-05-22T04:24:17.140Z,86.10
2019-05-22T04:26:48.141Z,86.10
2019-05-22T04:29:18.426Z,86.10
2019-05-22T04:31:53.697Z,86.00
2019-05-22T04:34:23.158Z,86.30
2019-05-22T04:36:54.099Z,86.30
2019-05-22T04:39:26.825Z,86.10
2019-05-22T04:41:58.895Z,86.50
2019-05-22T04:44:28.424Z,86.60
2019-05-22T04:46:58.237Z,86.50
2019-05-22T04:49:27.807Z,85.70
2019-05-22T04:51:57.899Z,85.10
2019-05-22T04:54:27.463Z,85.10
2019-05-22T04:56:57.815Z,84.80
2019-05-22T04:59:27.335Z,84.70
2019-05-22T05:01:58.343Z,84.40
2019-05-22T05:04:28.307Z,83.80
2019-05-22T05:06:58.946Z,83.70
2019-05-22T05:09:29.843Z,83.70
2019-05-22T05:12:00.111Z,83.40
2019-05-22T05:14:29.559Z,82.90
2019-05-22T05:17:18.713Z,82.80
2019-05-22T05:19:48.162Z,81.40
2019-05-22T05:22:39.895Z,81.30
2019-05-22T05:25:10.194Z,82.00
2019-05-22T05:27:39.927Z,82.20
2019-05-22T05:30:12.505Z,82.70
2019-05-22T05:32:43.228Z,82.40
2019-05-22T05:35:16.976Z,82.60
2019-05-22T05:37:47.731Z,83.30
2019-05-22T05:40:33.715Z,82.80
2019-05-22T05:43:04.792Z,83.20
2019-05-22T05:45:46.603Z,83.30
2019-05-22T05:48:19.431Z,83.30
2019-05-22T05:50:56.412Z,82.80
2019-05-22T05:53:26.960Z,82.30
2019-05-22T05:56:08.710Z,81.10
2019-05-22T05:58:38.417Z,80.60
2019-05-22T06:01:32.369Z,79.80
2019-05-22T06:04:03.438Z,79.70
2019-05-22T06:09:17.694Z,78.30
2019-05-22T06:11:49.173Z,78.30
2019-05-22T06:14:30.450Z,78.10
2019-05-22T06:17:39.288Z,78.10
2019-05-22T06:20:11.783Z,78.00
2019-05-22T06:22:43.217Z,77.30
2019-05-22T06:25:14.088Z,76.40
2019-05-22T06:27:47.390Z,75.90
2019-05-22T06:30:21.589Z,76.00
2019-05-22T06:33:10.398Z,75.00
2019-05-22T06:35:41.011Z,73.90
2019-05-22T06:38:38.438Z,73.80
2019-05-22T06:41:11.159Z,73.50
2019-05-22T06:43:43.805Z,72.90
2019-05-22T06:46:15.731Z,72.30
2019-05-22T06:48:45.634Z,71.10
2019-05-22T06:51:19.365Z,70.80
2019-05-22T06:53:46.511Z,71.60
2019-05-22T06:56:16.022Z,70.80
2019-05-22T06:58:49.376Z,70.30
2019-05-22T07:01:19.324Z,70.50
2019-05-22T07:03:49.979Z,69.60
2019-05-22T07:06:19.818Z,70.10
2019-05-22T07:08:50.036Z,70.10
2019-05-22T07:11:19.544Z,69.70
2019-05-22T07:13:49.946Z,69.40
2019-05-22T07:16:19.522Z,69.40
2019-05-22T07:18:49.283Z,70.00
2019-05-22T07:21:33.134Z,69.70
2019-05-22T07:23:50.095Z,69.60
2019-05-22T07:26:19.983Z,69.20
2019-05-22T07:28:49.671Z,68.80
2019-05-22T07:31:20.134Z,68.70
2019-05-22T07:34:02.043Z,67.40
2019-05-22T07:36:33.056Z,67.40
2019-05-22T07:39:04.441Z,67.20
2019-05-22T07:41:34.652Z,66.20
2019-05-22T07:44:23.439Z,66.00
2019-05-22T07:46:53.385Z,64.50
2019-05-22T07:49:22.924Z,64.70
2019-05-22T07:52:00.609Z,65.00
2019-05-22T07:54:23.812Z,65.00
2019-05-22T07:56:53.715Z,64.70
2019-05-22T07:59:23.732Z,64.90
2019-05-22T08:01:53.200Z,64.60
2019-05-22T08:04:24.566Z,64.50
2019-05-22T08:06:55.110Z,64.00
2019-05-22T08:09:26.072Z,62.60
2019-05-22T08:11:57.006Z,62.30
2019-05-22T08:14:27.801Z,61.60
2019-05-22T08:16:57.511Z,61.00
2019-05-22T08:19:27.642Z,61.20
2019-05-22T08:22:07.449Z,61.30
2019-05-22T08:24:31.282Z,60.10
2019-05-22T08:27:01.108Z,60.10
2019-05-22T08:29:31.939Z,59.80
2019-05-22T08:32:02.289Z,60.20
2019-05-22T08:34:32.067Z,60.90
2019-05-22T08:37:03.659Z,60.80
2019-05-22T08:39:33.252Z,59.80
2019-05-22T08:42:05.371Z,59.10
2019-05-22T08:44:36.899Z,58.40
2019-05-22T08:47:08.278Z,58.20
2019-05-22T08:49:39.105Z,57.30
2019-05-22T08:52:22.471Z,57.30
2019-05-22T08:54:41.578Z,57.40
2019-05-22T08:57:12.013Z,57.00
2019-05-22T08:59:42.639Z,56.10
2019-05-22T09:02:12.271Z,55.70
2019-05-22T09:04:42.109Z,55.40
2019-05-22T09:07:12.163Z,55.80
2019-05-22T09:09:41.709Z,55.50
2019-05-22T09:12:11.345Z,55.40
2019-05-22T09:14:41.287Z,55.40
2019-05-22T09:17:11.545Z,54.80
2019-05-22T09:19:41.349Z,54.70
2019-05-22T09:22:11.605Z,54.80
2019-05-22T09:24:42.865Z,53.90
2019-05-22T09:27:12.482Z,53.30
2019-05-22T09:29:42.024Z,53.00
2019-05-22T09:32:11.536Z,52.20
2019-05-22T09:34:41.430Z,51.80
2019-05-22T09:37:10.963Z,52.00
2019-05-22T09:39:40.504Z,52.30
2019-05-22T09:42:10.114Z,52.70
2019-05-22T09:44:40.637Z,53.20
2019-05-22T09:47:10.336Z,54.00
2019-05-22T09:49:42.863Z,54.30
2019-05-22T09:52:13.303Z,54.00
2019-05-22T09:54:44.865Z,53.90
2019-05-22T09:57:14.682Z,53.00
2019-05-22T09:59:44.191Z,53.30
2019-05-22T10:02:15.506Z,53.40
2019-05-22T10:04:45.099Z,52.90
2019-05-22T10:07:14.638Z,52.80
2019-05-22T10:09:44.381Z,51.90
2019-05-22T10:12:13.939Z,52.40
2019-05-22T10:14:43.476Z,52.60
2019-05-22T10:17:13.261Z,52.40
2019-05-22T10:19:43.174Z,52.20
2019-05-22T10:22:13.123Z,52.30
2019-05-22T10:24:43.571Z,52.10
2019-05-22T10:27:17.314Z,51.70
2019-05-22T10:29:46.236Z,51.60
2019-05-22T10:32:17.031Z,50.80
2019-05-22T10:34:46.684Z,50.60
2019-05-22T10:37:16.441Z,50.70
2019-05-22T10:39:46.860Z,50.70
2019-05-22T10:42:17.023Z,50.50
2019-05-22T10:44:46.606Z,50.30
2019-05-22T10:47:18.589Z,50.80
2019-05-22T10:49:47.591Z,50.40
2019-05-22T10:52:19.098Z,49.50
2019-05-22T10:54:48.713Z,49.20
2019-05-22T10:57:18.836Z,48.80
2019-05-22T10:59:48.411Z,48.60
2019-05-22T11:02:18.311Z,48.60
2019-05-22T11:04:56.723Z,47.90
2019-05-22T11:07:28.707Z,47.10
2019-05-22T11:09:58.210Z,47.50
2019-05-22T11:12:27.728Z,48.00
2019-05-22T11:14:57.327Z,46.60
2019-05-22T11:17:26.850Z,47.00
2019-05-22T11:19:56.356Z,46.40
2019-05-22T11:22:27.037Z,47.10
2019-05-22T11:24:56.658Z,46.30
2019-05-22T11:27:26.103Z,45.60
2019-05-22T11:29:55.640Z,43.30
2019-05-22T11:32:25.559Z,43.50
2019-05-22T11:34:55.448Z,45.30
2019-05-22T11:37:24.956Z,45.50
2019-05-22T11:39:54.441Z,44.50
2019-05-22T11:42:24.498Z,44.10
2019-05-22T11:44:54.707Z,43.00
2019-05-22T11:47:24.421Z,41.70
2019-05-22T11:49:54.070Z,41.70
2019-05-22T11:52:23.713Z,42.00
2019-05-22T11:54:53.623Z,41.30
2019-05-22T11:57:23.424Z,41.40
2019-05-22T11:59:52.975Z,42.20
2019-05-22T12:02:24.028Z,40.30
2019-05-22T12:04:53.804Z,39.50
2019-05-22T12:07:23.410Z,40.60
2019-05-22T12:09:53.391Z,39.60
2019-05-22T12:12:22.877Z,40.00
2019-05-22T12:14:52.502Z,40.50
2019-05-22T12:17:37.669Z,40.10
2019-05-22T12:19:54.167Z,40.80
2019-05-22T12:22:25.002Z,39.30
2019-05-22T12:24:54.468Z,38.80
2019-05-22T12:27:24.856Z,38.40
2019-05-22T12:29:54.330Z,38.00
2019-05-22T12:32:24.724Z,39.60
2019-05-22T12:34:54.529Z,40.00
2019-05-22T12:37:24.924Z,40.10
2019-05-22T12:39:54.680Z,40.20
2019-05-22T12:42:36.271Z,39.70
2019-05-22T12:45:08.702Z,40.20
2019-05-22T12:47:38.492Z,40.40
2019-05-22T12:50:08.184Z,40.60
2019-05-22T12:52:38.860Z,40.70
2019-05-22T12:55:08.891Z,40.90
2019-05-22T12:57:38.345Z,38.70
2019-05-22T13:00:10.311Z,38.80
2019-05-22T13:02:42.711Z,38.40
2019-05-22T13:05:14.481Z,38.70
2019-05-22T13:07:44.278Z,38.50
2019-05-22T13:10:15.180Z,36.20
2019-05-22T13:12:44.978Z,38.30
2019-05-22T13:15:14.615Z,40.70
2019-05-22T13:17:44.889Z,41.40
2019-05-22T13:20:17.989Z,38.80
2019-05-22T13:22:49.583Z,38.00
2019-05-22T13:25:20.808Z,35.30
2019-05-22T13:27:52.531Z,33.80
2019-05-22T13:30:28.175Z,29.20
2019-05-22T13:32:56.990Z,29.20
2019-05-22T13:35:26.790Z,27.70
2019-05-22T13:37:58.066Z,26.70
2019-05-22T13:40:28.970Z,25.60
2019-05-22T13:42:59.326Z,24.90
2019-05-22T13:45:30.375Z,23.50
2019-05-22T13:47:59.947Z,23.90
2019-05-22T13:50:30.116Z,25.20
2019-05-22T13:53:03.207Z,24.80
2019-05-22T13:55:33.600Z,24.80
2019-05-22T13:58:05.867Z,24.90
2019-05-22T14:00:36.233Z,25.80
2019-05-22T14:03:06.019Z,28.10
2019-05-22T14:05:36.684Z,29.70
2019-05-22T14:08:08.141Z,32.60
2019-05-22T14:10:44.077Z,33.50
2019-05-22T14:13:16.142Z,34.30
2019-05-22T14:15:54.515Z,34.90
2019-05-22T14:18:17.913Z,34.20
2019-05-22T14:20:49.965Z,34.50
2019-05-22T14:23:26.785Z,35.30
2019-05-22T14:25:56.505Z,35.40
2019-05-22T14:28:28.751Z,35.70
2019-05-22T14:30:58.710Z,36.00
2019-05-22T14:33:29.953Z,35.20
2019-05-22T14:36:00.948Z,35.60
2019-05-22T14:38:30.392Z,35.10
2019-05-22T14:41:01.869Z,33.70
2019-05-22T14:43:32.282Z,33.60
2019-05-22T14:46:02.387Z,34.20
2019-05-22T14:48:31.986Z,32.00
2019-05-22T14:51:01.705Z,31.20
2019-05-22T14:53:31.899Z,29.80
2019-05-22T14:56:01.994Z,27.90
2019-05-22T14:58:31.587Z,27.70
2019-05-22T15:01:01.388Z,27.80
2019-05-22T15:03:33.329Z,27.20
2019-05-22T15:06:03.012Z,26.40
2019-05-22T15:08:32.543Z,26.30
2019-05-22T15:11:02.451Z,25.90
2019-05-22T15:13:32.490Z,26.10
2019-05-22T15:16:02.041Z,25.30
2019-05-22T15:18:32.115Z,23.20
2019-05-22T15:21:03.747Z,23.00
2019-05-22T15:23:33.996Z,23.10
2019-05-22T15:26:03.801Z,24.00
2019-05-22T15:28:33.420Z,24.30
2019-05-22T15:31:03.114Z,25.00
2019-05-22T15:33:34.882Z,25.90
2019-05-22T15:36:06.971Z,26.00
2019-05-22T15:38:40.746Z,25.10
2019-05-22T15:41:11.299Z,25.50
2019-05-22T15:43:43.696Z,25.50
2019-05-22T15:46:15.455Z,26.70
2019-05-22T15:48:47.626Z,27.30
2019-05-22T15:51:21.209Z,27.50
2019-05-22T15:53:52.348Z,27.70
2019-05-22T15:56:23.133Z,26.90
2019-05-22T15:58:54.924Z,26.00
2019-05-22T16:01:25.542Z,25.90
2019-05-22T16:03:56.545Z,25.10
2019-05-22T16:06:28.250Z,25.10
2019-05-22T16:08:58.563Z,26.30
2019-05-22T16:11:29.874Z,27.60
2019-05-22T16:13:59.891Z,28.80
2019-05-22T16:16:30.172Z,28.70
2019-05-22T16:19:03.254Z,29.30
2019-05-22T16:21:34.923Z,29.40
2019-05-22T16:24:06.919Z,29.60
2019-05-22T16:26:39.048Z,29.80
2019-05-22T16:29:08.675Z,29.80
2019-05-22T16:31:39.622Z,30.20
2019-05-22T16:34:10.317Z,30.10
2019-05-22T16:36:40.874Z,30.70
2019-05-22T16:39:15.489Z,31.50
2019-05-22T16:41:46.562Z,32.80
2019-05-22T16:44:17.190Z,33.70
2019-05-22T16:46:48.654Z,34.50
2019-05-22T16:49:18.279Z,36.10
2019-05-22T16:51:51.422Z,36.70
2019-05-22T16:54:21.455Z,37.00
2019-05-22T16:56:51.411Z,37.80
2019-05-22T16:59:22.452Z,39.00
2019-05-22T17:01:59.310Z,39.40
2019-05-22T17:04:24.284Z,40.30
2019-05-22T17:06:54.186Z,40.20
2019-05-22T17:09:23.814Z,40.10
2019-05-22T17:11:53.536Z,40.50
2019-05-22T17:14:25.074Z,41.20
2019-05-22T17:17:02.492Z,41.20
2019-05-22T17:19:32.008Z,41.60
2019-05-22T17:22:02.881Z,41.90
2019-05-22T17:24:34.323Z,41.10
2019-05-22T17:27:04.647Z,40.60
2019-05-22T17:29:34.236Z,41.40
2019-05-22T17:32:05.203Z,41.80
2019-05-22T17:34:36.091Z,41.40
2019-05-22T17:37:17.480Z,41.60
2019-05-22T17:39:49.410Z,41.90
2019-05-22T17:42:25.114Z,41.20
2019-05-22T17:44:55.550Z,40.70
2019-05-22T17:47:26.405Z,40.30
2019-05-22T17:49:56.830Z,40.40
2019-05-22T17:52:27.958Z,39.00
2019-05-22T17:54:58.315Z,39.30
2019-05-22T17:57:30.155Z,40.00
2019-05-22T17:59:59.924Z,39.40
2019-05-22T18:02:31.216Z,39.10
2019-05-22T18:05:01.202Z,39.30
2019-05-22T18:07:31.607Z,39.80
2019-05-22T18:10:01.845Z,41.70
2019-05-22T18:12:31.666Z,40.10
2019-05-22T18:15:02.387Z,39.90
2019-05-22T18:17:31.933Z,39.50
2019-05-22T18:20:01.550Z,39.40
2019-05-22T18:22:31.261Z,39.40
2019-05-22T18:25:01.275Z,40.10
2019-05-22T18:27:31.647Z,40.20
2019-05-22T18:30:01.144Z,40.30
2019-05-22T18:32:33.740Z,40.70
2019-05-22T18:35:03.569Z,40.80
2019-05-22T18:37:34.649Z,41.00
2019-05-22T18:40:07.427Z,41.40
2019-05-22T18:42:37.262Z,42.00
2019-05-22T18:45:07.483Z,41.90
2019-05-22T18:47:37.394Z,42.00
2019-05-22T18:50:07.618Z,42.00
2019-05-22T18:52:41.455Z,42.00
2019-05-22T18:55:09.532Z,42.00
2019-05-22T18:57:47.452Z,41.10
2019-05-22T19:00:21.149Z,42.00
2019-05-22T19:02:51.022Z,41.90
2019-05-22T19:05:23.855Z,42.60
2019-05-22T19:07:53.539Z,43.80
2019-05-22T19:10:23.777Z,44.60
2019-05-22T19:12:53.291Z,45.20
2019-05-22T19:15:23.598Z,45.70
2019-05-22T19:17:53.507Z,45.60
2019-05-22T19:20:24.172Z,46.10
2019-05-22T19:23:00.507Z,46.50
2019-05-22T19:25:25.279Z,46.30
2019-05-22T19:27:54.729Z,46.50
2019-05-22T19:30:25.978Z,47.00
2019-05-22T19:32:55.416Z,47.00
2019-05-22T19:35:24.840Z,45.80
2019-05-22T19:37:56.190Z,45.80
2019-05-22T19:40:25.849Z,46.20
2019-05-22T19:42:55.724Z,46.20
2019-05-22T19:45:25.907Z,46.40
2019-05-22T19:47:56.930Z,46.50
2019-05-22T19:50:27.044Z,46.50
2019-05-22T19:53:19.222Z,46.00
2019-05-22T19:55:47.918Z,46.40
2019-05-22T19:58:21.772Z,46.70
2019-05-22T20:00:49.895Z,47.10
2019-05-22T20:03:21.113Z,47.60
2019-05-22T20:05:50.660Z,48.10
2019-05-22T20:08:40.787Z,48.00
2019-05-22T20:11:10.415Z,48.20
2019-05-22T20:13:40.563Z,48.20
2019-05-22T20:16:10.549Z,48.50
2019-05-22T20:18:39.984Z,48.80
2019-05-22T20:21:10.229Z,48.80
2019-05-22T20:23:40.270Z,48.70
2019-05-22T20:26:09.715Z,48.90
2019-05-22T20:28:39.435Z,48.80
2019-05-22T20:31:09.911Z,49.10
2019-05-22T20:33:39.544Z,48.80
2019-05-22T20:36:10.005Z,45.80
2019-05-22T20:38:39.733Z,45.00
2019-05-22T20:41:09.726Z,44.70
2019-05-22T20:43:40.487Z,44.80
2019-05-22T20:46:11.213Z,44.60
2019-05-22T20:48:41.652Z,44.60
2019-05-22T20:51:13.163Z,44.70
2019-05-22T20:53:54.011Z,44.70
2019-05-22T20:56:20.286Z,45.00
2019-05-22T20:58:58.435Z,45.00
2019-05-22T21:01:28.043Z,45.00
2019-05-22T21:04:01.241Z,45.40
2019-05-22T21:06:35.522Z,45.70
2019-05-22T21:09:06.801Z,45.80
2019-05-22T21:11:36.375Z,46.00
2019-05-22T21:14:06.218Z,46.00
2019-05-22T21:16:35.944Z,45.80
2019-05-22T21:19:06.744Z,46.00
2019-05-22T21:21:36.756Z,46.10
2019-05-22T21:24:11.331Z,46.10
2019-05-22T21:26:39.201Z,46.00
2019-05-22T21:29:09.026Z,45.80
2019-05-22T21:31:38.571Z,46.00
2019-05-22T21:34:08.512Z,46.40
2019-05-22T21:36:38.847Z,46.70
2019-05-22T21:39:12.176Z,47.20
2019-05-22T21:41:42.466Z,47.50
2019-05-22T21:44:12.261Z,47.80
2019-05-22T21:46:42.478Z,47.90
2019-05-22T21:49:12.266Z,48.10
2019-05-22T21:51:41.771Z,48.40
2019-05-22T21:54:13.247Z,48.50
2019-05-22T21:56:44.610Z,48.90
2019-05-22T21:59:16.000Z,48.70
2019-05-22T22:01:47.477Z,49.20
2019-05-22T22:04:19.650Z,49.50
2019-05-22T22:06:50.853Z,49.80
2019-05-22T22:09:20.843Z,50.00
2019-05-22T22:12:03.127Z,50.20
2019-05-22T22:14:33.467Z,51.10
2019-05-22T22:17:03.850Z,50.60
2019-05-22T22:19:34.385Z,50.70
2019-05-22T22:22:09.042Z,51.10
2019-05-22T22:24:38.638Z,52.00
2019-05-22T22:27:11.679Z,51.50
2019-05-22T22:29:41.297Z,51.50
2019-05-22T22:32:12.277Z,51.60
2019-05-22T22:34:50.283Z,51.90
2019-05-22T22:37:21.224Z,52.00
2019-05-22T22:40:01.814Z,52.00
2019-05-22T22:42:36.815Z,52.30
2019-05-22T22:45:08.946Z,52.40
2019-05-22T22:47:39.260Z,52.50
2019-05-22T22:50:09.860Z,52.50
2019-05-22T22:52:40.030Z,52.80
2019-05-22T22:55:11.551Z,52.90
2019-05-22T22:57:41.082Z,53.00
2019-05-22T23:00:13.590Z,53.30
2019-05-22T23:02:43.895Z,53.50
2019-05-22T23:05:13.820Z,53.80
2019-05-22T23:07:43.783Z,54.10
2019-05-22T23:10:16.626Z,54.40
2019-05-22T23:12:46.956Z,54.70
2019-05-22T23:15:18.393Z,54.70
2019-05-22T23:17:49.363Z,54.70
2019-05-22T23:20:17.971Z,55.10
2019-05-22T23:22:46.366Z,55.30
2019-05-22T23:25:19.498Z,55.70
2019-05-22T23:27:51.054Z,56.00
2019-05-22T23:30:39.932Z,56.10
2019-05-22T23:33:10.887Z,56.40
2019-05-22T23:35:41.127Z,56.60
2019-05-22T23:38:10.679Z,56.90
2019-05-22T23:40:40.148Z,57.10
2019-05-22T23:43:11.209Z,57.60
2019-05-22T23:45:41.338Z,57.60
2019-05-22T23:48:13.235Z,57.90
2019-05-22T23:50:44.651Z,58.00
2019-05-22T23:53:19.536Z,58.00
2019-05-22T23:55:50.057Z,58.20
2019-05-22T23:58:22.730Z,58.30
